»·PEaware :: N695DS KSMX-KSBP

N695DS :: KSMX-KSBP

FLIGHT INFORMATION

Flight Status: Arrived
Operator: Privately registered:
United States
More flights under this callsign
Pilot: Christopher S. (2105)
Aircraft: Unknown
(DA62)
More flights by this aircraft type
Origin: KSMX Santa Maria Pub/Capt Hancock
United States
Destination: KSBP San Luis Co Regl
United States
More flights between these airports :: More routes between these airports
Route: +MQO
File this flight plan on PilotEdge
Remarks:
Altitude:
(Current/Filed)
4,000ft
Speed:
(Current/Filed)
170kts
Departed: 09-Jan-19 07:10 PM
Arrived: 09-Jan-19 08:09 PM
Distance/Time
Traveled:
22nm/0:59
Distance/Time
To Go:
Arrived

Flight Plot

Page will automatically refresh every two minutes.


Map Options




Map Legend


Flown Route
Filed Route
Departure Airport
Arrival Airport
Navaid (VOR, NDB)
Fix

Horizontal Profiles

Position Reports

Time Latitude Longitude Heading Altitude Ground
Speed
09-Jan-19 18:31 34.901385 -120.450786 154 265ft 0kts
09-Jan-19 18:32 34.901385 -120.450786 154 265ft 0kts
09-Jan-19 18:33 34.901385 -120.450786 154 265ft 0kts
09-Jan-19 18:34 34.901385 -120.450786 154 265ft 0kts
09-Jan-19 18:35 34.901385 -120.450786 154 265ft 0kts
09-Jan-19 18:36 34.901377 -120.450782 154 265ft 0kts
09-Jan-19 18:37 34.901377 -120.450782 154 265ft 0kts
09-Jan-19 18:38 34.901377 -120.450782 154 265ft 0kts
09-Jan-19 18:39 34.901377 -120.450782 154 265ft 0kts
09-Jan-19 18:40 34.901377 -120.450782 154 265ft 0kts
09-Jan-19 18:41 34.901377 -120.450782 154 265ft 0kts
09-Jan-19 18:42 34.901377 -120.450782 154 265ft 0kts
09-Jan-19 18:43 34.901377 -120.450782 154 265ft 0kts
09-Jan-19 18:44 34.901377 -120.450782 154 265ft 0kts
09-Jan-19 18:45 34.901377 -120.450782 154 265ft 0kts
09-Jan-19 18:46 34.901377 -120.450782 154 265ft 0kts
09-Jan-19 18:47 34.901377 -120.450782 154 265ft 0kts
09-Jan-19 18:48 34.901377 -120.450782 154 265ft 0kts
09-Jan-19 18:49 34.901377 -120.450782 154 265ft 0kts
09-Jan-19 18:50 34.901377 -120.450782 154 265ft 0kts
09-Jan-19 18:51 34.901377 -120.450782 154 265ft 0kts
09-Jan-19 18:52 34.901377 -120.450782 154 265ft 0kts
09-Jan-19 18:53 34.901377 -120.450782 154 265ft 0kts
09-Jan-19 18:54 34.901377 -120.450782 154 265ft 0kts
09-Jan-19 18:55 34.901317 -120.450761 172 265ft 1kts
09-Jan-19 18:56 34.899077 -120.450816 134 265ft 11kts
09-Jan-19 18:57 34.897189 -120.448537 133 265ft 9kts
09-Jan-19 18:58 34.894472 -120.445330 124 265ft 7kts
09-Jan-19 18:59 34.893799 -120.443530 62 265ft 4kts
09-Jan-19 19:00 34.893977 -120.443294 224 265ft 0kts
09-Jan-19 19:01 34.893977 -120.443294 224 265ft 0kts
09-Jan-19 19:02 34.893977 -120.443294 224 265ft 0kts
09-Jan-19 19:03 34.893977 -120.443294 224 265ft 0kts
09-Jan-19 19:04 34.893937 -120.444615 266 265ft 6kts
09-Jan-19 19:05 34.893290 -120.444937 176 265ft 0kts
09-Jan-19 19:06 34.893273 -120.444936 177 265ft 0kts
09-Jan-19 19:07 34.893273 -120.444936 177 265ft 0kts
09-Jan-19 19:08 34.892730 -120.445689 315 265ft 0kts
09-Jan-19 19:09 34.897962 -120.451947 317 404ft 83kts
09-Jan-19 19:10 34.915348 -120.475104 307 1416ft 116kts
09-Jan-19 19:11 34.936746 -120.506641 320 2426ft 125kts
09-Jan-19 19:12 34.963276 -120.533865 314 3417ft 124kts
09-Jan-19 19:13 34.988506 -120.563412 317 4000ft 145kts
09-Jan-19 19:14 35.024984 -120.588965 327 3998ft 153kts
09-Jan-19 19:15 35.061220 -120.615237 326 3996ft 149kts
09-Jan-19 19:16 35.097718 -120.642308 323 4002ft 160kts
09-Jan-19 19:17 35.124908 -120.618115 109 4002ft 165kts
09-Jan-19 19:18 35.107320 -120.566625 122 3997ft 164kts
09-Jan-19 19:19 35.086515 -120.518875 122 3982ft 150kts
09-Jan-19 19:20 35.067178 -120.473192 109 3450ft 154kts
09-Jan-19 19:21 35.094856 -120.457689 323 3012ft 138kts
09-Jan-19 19:22 35.124751 -120.478451 331 2996ft 114kts
09-Jan-19 19:23 35.152357 -120.495071 331 2998ft 109kts
09-Jan-19 19:24 35.170806 -120.524765 304 2660ft 129kts
09-Jan-19 19:25 35.193581 -120.564376 305 1627ft 144kts
09-Jan-19 19:26 35.211654 -120.595962 308 999ft 86kts
09-Jan-19 19:27 35.225121 -120.619616 305 540ft 84kts
09-Jan-19 19:28 35.238648 -120.643564 303 534ft 92kts
09-Jan-19 19:29 35.255653 -120.674273 304 1469ft 125kts
09-Jan-19 19:30 35.276048 -120.709163 304 2479ft 125kts
09-Jan-19 19:31 35.295727 -120.743725 302 3479ft 123kts
09-Jan-19 19:32 35.315848 -120.779242 301 3998ft 131kts
09-Jan-19 19:33 35.335279 -120.813535 301 3998ft 116kts
09-Jan-19 19:34 35.353314 -120.845433 301 4000ft 113kts
09-Jan-19 19:35 35.369366 -120.878062 287 4000ft 111kts
09-Jan-19 19:36 35.379260 -120.913903 286 4000ft 111kts
09-Jan-19 19:37 35.386082 -120.949834 243 4000ft 112kts
09-Jan-19 19:38 35.365568 -120.932869 67 4005ft 138kts
09-Jan-19 19:39 35.372328 -120.888295 111 4001ft 140kts
09-Jan-19 19:40 35.353569 -120.848627 171 4003ft 130kts
09-Jan-19 19:41 35.343687 -120.875148 287 4002ft 110kts
09-Jan-19 19:43 35.353661 -120.910874 287 4000ft 110kts
09-Jan-19 19:44 35.363635 -120.946588 286 3999ft 110kts
09-Jan-19 19:45 35.385826 -120.947082 78 4003ft 139kts
09-Jan-19 19:46 35.375914 -120.901284 113 4000ft 140kts
09-Jan-19 19:47 35.358536 -120.858787 121 4000ft 139kts
09-Jan-19 19:48 35.339336 -120.817309 121 4000ft 139kts
09-Jan-19 19:49 35.320062 -120.775710 121 4003ft 147kts
09-Jan-19 19:50 35.299454 -120.731402 121 4001ft 151kts
09-Jan-19 19:51 35.277404 -120.688144 152 3994ft 146kts
09-Jan-19 19:52 35.255942 -120.711626 260 4001ft 124kts
09-Jan-19 19:53 35.252337 -120.753368 267 4000ft 121kts
09-Jan-19 19:54 35.256217 -120.793625 281 4000ft 118kts
09-Jan-19 19:55 35.262746 -120.832454 278 4000ft 117kts
09-Jan-19 19:56 35.267989 -120.871903 284 3996ft 118kts
09-Jan-19 19:57 35.295385 -120.898323 321 3755ft 132kts
09-Jan-19 19:58 35.306800 -120.930958 215 3499ft 136kts
09-Jan-19 19:59 35.276417 -120.906971 109 3500ft 147kts
09-Jan-19 20:00 35.266538 -120.859196 103 3497ft 132kts
09-Jan-19 20:01 35.261347 -120.819934 101 3292ft 116kts
09-Jan-19 20:02 35.255142 -120.780420 101 2847ft 119kts
09-Jan-19 20:02 35.250291 -120.748417 100 2539ft 108kts
09-Jan-19 20:04 35.244285 -120.707262 101 1765ft 102kts
09-Jan-19 20:05 35.239521 -120.675885 107 1674ft 93kts
09-Jan-19 20:05 35.232439 -120.651751 118 1544ft 88kts
09-Jan-19 20:06 35.217618 -120.625687 133 1366ft 94kts
09-Jan-19 20:08 35.228584 -120.625973 303 469ft 89kts
09-Jan-19 20:08 35.237780 -120.641680 307 185ft 39kts
09-Jan-19 20:09 35.239869 -120.643962 68 175ft 0kts
09-Jan-19 20:10 35.239703 -120.643251 128 178ft 4kts
09-Jan-19 20:11 35.238460 -120.641282 126 186ft 9kts
09-Jan-19 20:12 35.238304 -120.639799 27 192ft 3kts
09-Jan-19 20:13 35.238615 -120.639970 296 190ft 0kts
09-Jan-19 20:14 35.238615 -120.639970 296 190ft 0kts
09-Jan-19 20:15 35.238615 -120.639970 296 190ft 0kts
09-Jan-19 20:16 35.238615 -120.639970 296 190ft 0kts
09-Jan-19 20:17 35.238615 -120.639970 296 190ft 0kts
09-Jan-19 20:18 35.238615 -120.639970 296 190ft 0kts
09-Jan-19 20:19 35.238615 -120.639970 296 190ft 0kts
09-Jan-19 20:20 35.238615 -120.639970 296 190ft 0kts
09-Jan-19 20:21 35.238615 -120.639970 296 190ft 0kts
09-Jan-19 20:22 35.238615 -120.639970 296 190ft 0kts
09-Jan-19 20:23 35.238615 -120.639970 296 190ft 0kts

Navigation Log

Ident Type
Flight plan parsing failed, navigation log unavailable